createdAt,value
2018-01-15T00:00:33.805Z,74.30
2018-01-15T00:03:01.995Z,72.80
2018-01-15T00:05:30.795Z,69.80
2018-01-15T00:07:58.955Z,68.50
2018-01-15T00:10:37.129Z,70.20
2018-01-15T00:13:06.095Z,72.60
2018-01-15T00:15:34.270Z,72.60
2018-01-15T00:18:02.426Z,74.30
2018-01-15T00:20:30.702Z,75.20
2018-01-15T00:22:58.869Z,75.50
2018-01-15T00:25:27.800Z,72.50
2018-01-15T00:27:55.987Z,72.50
2018-01-15T00:30:25.241Z,74.30
2018-01-15T00:32:53.428Z,75.00
2018-01-15T00:35:21.606Z,75.30
2018-01-15T00:37:49.860Z,74.40
2018-01-15T00:40:22.025Z,74.30
2018-01-15T00:42:53.785Z,74.40
2018-01-15T00:45:21.932Z,73.90
2018-01-15T00:47:50.948Z,72.10
2018-01-15T00:50:22.712Z,72.10
2018-01-15T00:52:50.886Z,71.90
2018-01-15T00:55:23.364Z,72.80
2018-01-15T00:57:51.548Z,71.60
2018-01-15T01:00:22.805Z,73.00
2018-01-15T01:02:51.890Z,73.00
2018-01-15T01:05:20.035Z,73.20
2018-01-15T01:07:48.206Z,72.50
2018-01-15T01:10:17.305Z,73.40
2018-01-15T01:12:45.461Z,74.30
2018-01-15T01:15:14.387Z,76.10
2018-01-15T01:17:42.551Z,76.20
2018-01-15T01:20:10.824Z,76.00
2018-01-15T01:22:38.980Z,74.60
2018-01-15T01:25:07.907Z,74.30
2018-01-15T01:27:36.167Z,74.40
2018-01-15T01:30:05.174Z,73.90
2018-01-15T01:32:33.327Z,73.90
2018-01-15T01:35:01.489Z,75.30
2018-01-15T01:37:29.654Z,75.20
2018-01-15T01:39:57.869Z,75.90
2018-01-15T01:42:26.082Z,75.00
2018-01-15T01:44:54.245Z,73.50
2018-01-15T01:47:22.397Z,73.00
2018-01-15T01:49:50.964Z,74.30
2018-01-15T01:52:19.244Z,74.20
2018-01-15T01:54:47.409Z,74.60
2018-01-15T01:57:15.573Z,73.90
2018-01-15T01:59:43.741Z,74.30
2018-01-15T02:02:13.024Z,75.70
2018-01-15T02:04:41.238Z,75.70
2018-01-15T02:07:09.397Z,76.00
2018-01-15T02:09:37.555Z,77.50
2018-01-15T02:12:05.721Z,75.40
2018-01-15T02:14:33.876Z,74.30
2018-01-15T02:17:02.033Z,75.90
2018-01-15T02:19:30.188Z,76.10
2018-01-15T02:22:05.597Z,78.80
2018-01-15T02:24:35.271Z,74.70
2018-01-15T02:27:03.506Z,74.30
2018-01-15T02:29:31.660Z,75.50
2018-01-15T02:32:00.609Z,77.50
2018-01-15T02:34:28.774Z,77.60
2018-01-15T02:36:56.941Z,77.00
2018-01-15T02:39:25.115Z,75.90
2018-01-15T02:41:53.361Z,76.90
2018-01-15T02:44:21.532Z,76.70
2018-01-15T02:46:49.696Z,75.40
2018-01-15T02:49:17.861Z,75.40
2018-01-15T02:51:46.063Z,75.60
2018-01-15T02:54:14.250Z,74.70
2018-01-15T02:56:42.416Z,74.70
2018-01-15T02:59:10.690Z,74.70
2018-01-15T03:01:38.977Z,74.70
2018-01-15T03:04:07.169Z,74.20
2018-01-15T03:06:35.329Z,75.20
2018-01-15T03:09:03.528Z,74.50
2018-01-15T03:11:32.690Z,74.90
2018-01-15T03:14:00.857Z,74.90
2018-01-15T03:16:29.021Z,75.00
2018-01-15T03:18:57.182Z,71.90
2018-01-15T03:21:25.384Z,73.00
2018-01-15T03:23:53.550Z,73.40
2018-01-15T03:26:21.710Z,73.50
2018-01-15T03:28:49.873Z,74.80
2018-01-15T03:31:18.083Z,76.20
2018-01-15T03:33:46.237Z,77.90
2018-01-15T03:36:15.165Z,76.00
2018-01-15T03:38:43.326Z,75.90
2018-01-15T03:41:11.585Z,76.20
2018-01-15T03:43:39.750Z,75.20
2018-01-15T03:46:08.677Z,73.10
2018-01-15T03:48:36.851Z,73.10
2018-01-15T03:51:05.116Z,72.40
2018-01-15T03:53:33.265Z,72.80
2018-01-15T03:56:02.200Z,73.50
2018-01-15T03:58:30.352Z,72.80
2018-01-15T04:01:04.433Z,72.60
2018-01-15T04:03:32.658Z,74.60
2018-01-15T04:06:00.902Z,73.20
2018-01-15T04:08:29.069Z,73.90
2018-01-15T04:10:58.101Z,75.70
2018-01-15T04:13:27.177Z,75.70
2018-01-15T04:15:55.349Z,74.00
2018-01-15T04:18:23.508Z,73.90
2018-01-15T04:20:51.803Z,72.90
2018-01-15T04:23:19.983Z,71.50
2018-01-15T04:25:48.138Z,69.80
2018-01-15T04:28:16.298Z,69.90
2018-01-15T04:30:44.545Z,68.90
2018-01-15T04:33:12.704Z,69.80
2018-01-15T04:35:40.935Z,70.70
2018-01-15T04:38:09.057Z,70.80
2018-01-15T04:40:44.421Z,70.20
2018-01-15T04:43:12.579Z,70.70
2018-01-15T04:45:50.659Z,69.60
2018-01-15T04:48:18.856Z,69.50
2018-01-15T04:50:47.099Z,69.80
2018-01-15T04:53:17.112Z,70.10
2018-01-15T04:55:45.268Z,70.90
2018-01-15T04:58:13.693Z,69.70
2018-01-15T05:00:48.054Z,68.90
2018-01-15T05:03:16.205Z,70.30
2018-01-15T05:05:45.667Z,69.60
2018-01-15T05:08:14.614Z,69.20
2018-01-15T05:10:43.750Z,69.10
2018-01-15T05:13:11.919Z,69.10
2018-01-15T05:15:40.089Z,68.90
2018-01-15T05:18:08.271Z,70.00
2018-01-15T05:20:37.499Z,69.40
2018-01-15T05:23:05.670Z,70.90
2018-01-15T05:25:33.863Z,70.20
2018-01-15T05:28:02.049Z,69.30
2018-01-15T05:30:30.209Z,68.10
2018-01-15T05:32:58.364Z,68.00
2018-01-15T05:35:26.516Z,68.00
2018-01-15T05:37:54.685Z,68.30
2018-01-15T05:40:22.860Z,68.00
2018-01-15T05:42:51.125Z,67.70
2018-01-15T05:45:19.315Z,66.80
2018-01-15T05:47:47.488Z,64.70
2018-01-15T05:50:15.778Z,67.10
2018-01-15T05:52:46.085Z,66.30
2018-01-15T05:55:14.232Z,66.20
2018-01-15T05:57:42.428Z,65.90
2018-01-15T06:00:12.515Z,63.10
2018-01-15T06:02:40.673Z,65.60
2018-01-15T06:05:08.829Z,66.60
2018-01-15T06:07:37.689Z,67.00
2018-01-15T06:10:07.479Z,68.10
2018-01-15T06:12:35.639Z,66.90
2018-01-15T06:15:04.215Z,68.10
2018-01-15T06:17:32.377Z,67.50
2018-01-15T06:20:04.305Z,69.10
2018-01-15T06:22:33.026Z,69.30
2018-01-15T06:25:01.260Z,68.90
2018-01-15T06:27:29.438Z,69.80
2018-01-15T06:30:04.468Z,69.00
2018-01-15T06:32:43.589Z,69.30
2018-01-15T06:35:12.857Z,70.10
2018-01-15T06:37:48.706Z,70.10
2018-01-15T06:40:17.956Z,70.40
2018-01-15T06:42:46.105Z,71.40
2018-01-15T06:45:15.050Z,72.10
2018-01-15T06:47:43.206Z,72.10
2018-01-15T06:50:11.845Z,73.20
2018-01-15T06:52:40.440Z,72.70
2018-01-15T06:55:11.752Z,72.30
2018-01-15T06:57:39.961Z,71.50
2018-01-15T07:00:09.961Z,73.70
2018-01-15T07:02:38.165Z,73.70
2018-01-15T07:05:06.391Z,73.80
2018-01-15T07:07:34.576Z,75.60
2018-01-15T07:10:02.830Z,75.60
2018-01-15T07:12:30.997Z,75.90
2018-01-15T07:14:59.217Z,76.40
2018-01-15T07:17:27.784Z,77.20
2018-01-15T07:19:55.984Z,78.30
2018-01-15T07:22:24.145Z,78.10
2018-01-15T07:24:52.341Z,77.60
2018-01-15T07:27:21.272Z,76.60
2018-01-15T07:29:49.439Z,76.60
2018-01-15T07:32:18.683Z,77.20
2018-01-15T07:34:46.844Z,76.10
2018-01-15T07:37:15.022Z,76.60
2018-01-15T07:39:43.403Z,77.00
2018-01-15T07:42:12.371Z,75.60
2018-01-15T07:44:40.563Z,75.60
2018-01-15T07:47:08.810Z,75.90
2018-01-15T07:49:36.986Z,76.50
2018-01-15T07:52:06.436Z,75.80
2018-01-15T07:54:37.331Z,72.20
2018-01-15T07:57:06.427Z,73.10
2018-01-15T07:59:35.214Z,74.30
2018-01-15T08:02:03.383Z,73.00
2018-01-15T08:04:31.613Z,74.50
2018-01-15T08:06:59.893Z,74.60
2018-01-15T08:09:28.465Z,74.60
2018-01-15T08:11:56.674Z,74.80
2018-01-15T08:14:26.564Z,74.10
2018-01-15T08:16:55.680Z,75.70
2018-01-15T08:19:23.927Z,75.80
2018-01-15T08:21:56.081Z,74.20
2018-01-15T08:24:25.642Z,74.10
2018-01-15T08:26:53.843Z,75.00
2018-01-15T08:29:23.007Z,74.30
2018-01-15T08:31:53.652Z,74.80
2018-01-15T08:34:21.844Z,74.10
2018-01-15T08:36:50.359Z,71.90
2018-01-15T08:39:19.174Z,70.80
2018-01-15T08:44:59.789Z,66.90
2018-01-15T08:47:28.386Z,65.80
2018-01-15T08:50:05.274Z,64.50
2018-01-15T08:52:33.987Z,64.00
2018-01-15T09:06:42.172Z,57.30
2018-01-15T09:09:22.799Z,55.70
2018-01-15T09:12:01.462Z,55.00
2018-01-15T09:14:29.629Z,52.10
2018-01-15T09:17:04.127Z,53.40
2018-01-15T09:19:32.511Z,53.60
2018-01-15T09:22:00.736Z,52.50
2018-01-15T09:24:28.883Z,51.70
2018-01-15T09:26:58.688Z,49.90
2018-01-15T09:29:27.395Z,48.70
2018-01-15T09:31:57.170Z,47.20
2018-01-15T09:34:25.375Z,47.20
2018-01-15T09:36:54.294Z,47.20
2018-01-15T09:39:22.446Z,46.70
2018-01-15T09:41:52.389Z,48.00
2018-01-15T09:44:20.550Z,47.90
2018-01-15T09:46:48.723Z,48.30
2018-01-15T09:49:17.839Z,45.80
2018-01-15T09:51:46.352Z,45.00
2018-01-15T09:54:14.522Z,46.20
2018-01-15T09:56:42.673Z,45.80
2018-01-15T09:59:12.285Z,45.90
2018-01-15T10:01:40.453Z,42.30
2018-01-15T10:04:09.477Z,43.20
2018-01-15T10:06:37.629Z,44.30
2018-01-15T10:09:05.810Z,41.70
2018-01-15T10:11:33.983Z,41.50
2018-01-15T10:14:03.926Z,42.30
2018-01-15T10:16:34.499Z,41.70
2018-01-15T10:19:04.004Z,43.40
2018-01-15T10:21:42.092Z,43.40
2018-01-15T10:24:12.918Z,42.70
2018-01-15T10:26:41.132Z,42.70
2018-01-15T10:29:09.948Z,43.00
2018-01-15T10:31:41.130Z,43.00
2018-01-15T10:34:09.513Z,43.40
2018-01-15T10:36:40.194Z,41.10
2018-01-15T10:39:09.593Z,41.70
2018-01-15T10:41:39.502Z,42.50
2018-01-15T10:44:09.945Z,42.50
2018-01-15T10:46:39.968Z,42.70
2018-01-15T10:49:10.735Z,40.50
2018-01-15T10:51:39.747Z,40.60
2018-01-15T10:54:08.558Z,39.70
2018-01-15T10:56:37.192Z,39.90
2018-01-15T10:59:07.829Z,40.40
2018-01-15T11:01:43.977Z,40.90
2018-01-15T11:04:13.842Z,40.50
2018-01-15T11:06:43.051Z,40.50
2018-01-15T11:09:15.321Z,41.50
2018-01-15T11:11:49.304Z,40.20
2018-01-15T11:14:18.843Z,40.70
2018-01-15T11:16:49.368Z,39.90
2018-01-15T11:19:17.798Z,40.00
2018-01-15T11:21:56.022Z,42.10
2018-01-15T11:24:26.656Z,41.30
2018-01-15T11:26:58.536Z,41.40
2018-01-15T11:29:26.732Z,41.80
2018-01-15T11:31:55.652Z,42.20
2018-01-15T11:34:24.386Z,41.00
2018-01-15T11:36:53.370Z,40.60
2018-01-15T11:39:23.092Z,41.70
2018-01-15T11:41:52.171Z,41.10
2018-01-15T11:44:28.054Z,40.10
2018-01-15T11:46:58.341Z,42.30
2018-01-15T11:49:26.557Z,42.80
2018-01-15T11:51:54.749Z,40.80
2018-01-15T11:54:22.914Z,39.70
2018-01-15T11:56:51.072Z,40.40
2018-01-15T11:59:19.215Z,41.10
2018-01-15T12:01:48.386Z,41.00
2018-01-15T12:04:16.558Z,40.50
2018-01-15T12:06:45.641Z,40.90
2018-01-15T12:09:13.831Z,41.40
2018-01-15T12:11:48.377Z,41.90
2018-01-15T12:14:20.459Z,41.80
2018-01-15T12:16:48.609Z,42.30
2018-01-15T12:19:16.815Z,41.10
2018-01-15T12:21:48.576Z,40.40
2018-01-15T12:24:16.793Z,40.70
2018-01-15T12:26:45.513Z,42.80
2018-01-15T12:29:14.447Z,40.60
2018-01-15T12:31:43.744Z,40.60
2018-01-15T12:34:11.896Z,41.10
2018-01-15T12:36:40.074Z,42.70
2018-01-15T12:39:08.229Z,41.20
2018-01-15T12:41:37.240Z,41.30
2018-01-15T12:44:05.415Z,41.30
2018-01-15T12:46:34.332Z,40.60
2018-01-15T12:49:02.527Z,41.30
2018-01-15T12:51:30.774Z,41.20
2018-01-15T12:53:58.950Z,41.60
2018-01-15T12:56:28.313Z,43.90
2018-01-15T12:58:56.466Z,44.00
2018-01-15T13:01:24.685Z,43.40
2018-01-15T13:03:53.101Z,42.30
2018-01-15T13:06:21.253Z,42.40
2018-01-15T13:09:08.942Z,42.40
2018-01-15T13:11:37.095Z,41.30
2018-01-15T13:14:05.260Z,41.90
2018-01-15T13:16:33.413Z,42.00
2018-01-15T13:19:02.280Z,41.40
2018-01-15T13:21:30.561Z,41.30
2018-01-15T13:23:58.801Z,41.40
2018-01-15T13:26:26.967Z,42.50
2018-01-15T13:28:55.148Z,42.30
2018-01-15T13:31:30.194Z,42.10
2018-01-15T13:34:02.081Z,42.80
2018-01-15T13:36:30.235Z,41.20
2018-01-15T13:38:59.232Z,41.20
2018-01-15T13:41:27.509Z,41.10
2018-01-15T13:43:55.660Z,39.70
2018-01-15T13:46:23.817Z,39.70
2018-01-15T13:48:51.968Z,40.70
2018-01-15T13:51:20.214Z,40.80
2018-01-15T13:53:48.394Z,39.90
2018-01-15T13:56:16.562Z,40.70
2018-01-15T13:58:45.483Z,39.90
2018-01-15T14:01:13.758Z,39.90
2018-01-15T14:03:41.912Z,40.20
2018-01-15T14:06:10.058Z,40.80
2018-01-15T14:08:38.226Z,40.50
2018-01-15T14:11:06.429Z,40.10
2018-01-15T14:13:34.588Z,40.10
2018-01-15T14:16:03.517Z,41.20
2018-01-15T14:18:31.686Z,41.20
2018-01-15T14:20:59.994Z,41.90
2018-01-15T14:23:28.216Z,41.90
2018-01-15T14:25:56.361Z,42.20
2018-01-15T14:28:24.522Z,42.70
2018-01-15T14:30:59.518Z,42.90
2018-01-15T14:33:28.562Z,43.70
2018-01-15T14:35:56.721Z,43.70
2018-01-15T14:38:24.864Z,44.30
2018-01-15T14:40:53.123Z,44.70
2018-01-15T14:43:21.285Z,44.80
2018-01-15T14:45:49.503Z,44.60
2018-01-15T14:48:17.677Z,46.00
2018-01-15T14:50:53.457Z,45.70
2018-01-15T14:53:21.676Z,46.10
2018-01-15T14:55:49.835Z,44.80
2018-01-15T14:58:18.761Z,45.60
2018-01-15T15:00:48.956Z,45.60
2018-01-15T15:03:17.123Z,46.40
2018-01-15T15:05:45.284Z,45.90
2018-01-15T15:08:13.429Z,46.40
2018-01-15T15:10:41.648Z,46.70
2018-01-15T15:13:09.809Z,47.20
2018-01-15T15:15:38.757Z,47.40
2018-01-15T15:18:06.901Z,47.40
2018-01-15T15:20:35.177Z,47.70
2018-01-15T15:23:03.328Z,48.00
2018-01-15T15:25:32.250Z,48.70
2018-01-15T15:28:00.393Z,48.70
2018-01-15T15:30:35.303Z,49.10
2018-01-15T15:33:03.475Z,50.10
2018-01-15T15:35:35.146Z,50.20
2018-01-15T15:38:04.077Z,50.90
2018-01-15T15:40:32.364Z,50.90
2018-01-15T15:43:00.558Z,50.90
2018-01-15T15:45:30.191Z,51.40
2018-01-15T15:47:58.352Z,52.30
2018-01-15T15:50:27.155Z,51.60
2018-01-15T15:52:56.089Z,52.50
2018-01-15T15:55:25.220Z,52.40
2018-01-15T15:57:53.425Z,53.00
2018-01-15T16:00:22.546Z,53.60
2018-01-15T16:02:50.873Z,51.70
2018-01-15T16:05:19.732Z,52.30
2018-01-15T16:07:47.899Z,53.60
2018-01-15T16:10:24.157Z,54.30
2018-01-15T16:12:52.340Z,54.40
2018-01-15T16:15:21.252Z,55.80
2018-01-15T16:17:49.461Z,56.60
2018-01-15T16:20:17.996Z,57.20
2018-01-15T16:22:59.509Z,57.60
2018-01-15T16:25:28.562Z,58.20
2018-01-15T16:27:57.612Z,59.30
2018-01-15T16:30:26.412Z,60.00
2018-01-15T16:32:55.338Z,60.90
2018-01-15T16:35:24.618Z,60.90
2018-01-15T16:37:53.075Z,61.70
2018-01-15T16:40:23.310Z,63.50
2018-01-15T16:42:52.148Z,63.40
2018-01-15T16:45:22.792Z,63.20
2018-01-15T16:47:51.203Z,63.80
2018-01-15T16:50:26.952Z,62.50
2018-01-15T16:52:55.184Z,62.40
2018-01-15T16:55:24.025Z,62.40
2018-01-15T16:57:52.174Z,62.20
2018-01-15T17:00:23.317Z,60.90
2018-01-15T17:02:51.531Z,61.20
2018-01-15T17:05:22.518Z,61.40
2018-01-15T17:07:51.284Z,61.50
2018-01-15T17:10:22.009Z,61.70
2018-01-15T17:12:50.958Z,61.00
2018-01-15T17:15:20.603Z,59.50
2018-01-15T17:17:48.848Z,58.90
2018-01-15T17:20:18.457Z,58.80
2018-01-15T17:22:47.393Z,59.70
2018-01-15T17:25:17.044Z,59.90
2018-01-15T17:27:46.014Z,59.90
2018-01-15T17:30:16.932Z,60.60
2018-01-15T17:32:45.419Z,61.80
2018-01-15T17:35:14.778Z,59.80
2018-01-15T17:37:43.161Z,59.80
2018-01-15T17:40:13.106Z,61.00
2018-01-15T17:42:41.276Z,61.40
2018-01-15T17:45:11.678Z,63.40
2018-01-15T17:47:40.154Z,63.80
2018-01-15T17:50:17.171Z,61.70
2018-01-15T17:52:45.921Z,61.70
2018-01-15T17:55:18.158Z,62.50
2018-01-15T17:57:47.400Z,62.50
2018-01-15T18:00:17.402Z,61.30
2018-01-15T18:02:46.877Z,61.10
2018-01-15T18:05:16.533Z,61.90
2018-01-15T18:07:45.712Z,61.60
2018-01-15T18:10:20.896Z,61.60
2018-01-15T18:12:50.233Z,60.60
2018-01-15T18:15:22.738Z,61.60
2018-01-15T18:17:51.793Z,62.20
2018-01-15T18:20:20.039Z,62.20
2018-01-15T18:22:48.294Z,63.50
2018-01-15T18:25:18.398Z,63.30
2018-01-15T18:27:46.780Z,62.70
2018-01-15T18:30:22.116Z,61.80
2018-01-15T18:32:50.535Z,61.80
2018-01-15T18:35:18.766Z,62.80
2018-01-15T18:37:48.218Z,60.60
2018-01-15T18:40:17.454Z,60.10
2018-01-15T18:42:46.428Z,60.20
2018-01-15T18:45:14.612Z,62.20
2018-01-15T18:47:43.456Z,61.90
2018-01-15T18:50:11.649Z,62.50
2018-01-15T18:52:40.042Z,61.90
2018-01-15T18:55:12.356Z,57.50
2018-01-15T18:57:41.858Z,63.90
2018-01-15T19:00:10.283Z,64.10
2018-01-15T19:02:38.883Z,63.30
2018-01-15T19:05:07.425Z,64.70
2018-01-15T19:07:37.269Z,67.60
2018-01-15T19:10:05.629Z,68.90
2018-01-15T19:12:37.196Z,69.10
2018-01-15T19:15:07.338Z,72.40
2018-01-15T19:17:36.500Z,71.40
2018-01-15T19:20:07.289Z,74.00
2018-01-15T19:22:35.550Z,72.10
2018-01-15T19:25:06.516Z,77.00
2018-01-15T19:27:34.914Z,77.10
2018-01-15T19:30:03.694Z,78.20
2018-01-15T19:32:32.773Z,77.20
2018-01-15T19:35:14.621Z,80.30
2018-01-15T19:37:46.840Z,80.50
2018-01-15T19:40:22.106Z,82.70
2018-01-15T19:43:10.734Z,82.80
2018-01-15T19:45:44.542Z,84.50
2018-01-15T19:48:18.634Z,86.30
2018-01-15T19:50:54.028Z,85.80
2018-01-15T19:53:28.532Z,86.60
2018-01-15T19:56:03.994Z,87.90
2018-01-15T19:58:37.985Z,88.40
2018-01-15T20:01:12.988Z,89.80
2018-01-15T20:03:50.774Z,89.90
2018-01-15T20:06:26.216Z,89.10
2018-01-15T20:09:00.489Z,89.10
2018-01-15T20:11:29.425Z,90.20
2018-01-15T20:13:58.110Z,90.20
2018-01-15T20:16:26.262Z,89.10
2018-01-15T20:18:55.746Z,90.40
2018-01-15T20:21:25.957Z,90.60
2018-01-15T20:26:38.509Z,90.90
2018-01-15T20:29:10.039Z,90.50
2018-01-15T20:31:38.989Z,90.40
2018-01-15T20:34:07.161Z,90.40
2018-01-15T20:36:35.368Z,91.20
2018-01-15T20:39:03.516Z,90.20
2018-01-15T20:41:36.402Z,91.70
2018-01-15T20:44:05.038Z,90.80
2018-01-15T20:46:33.496Z,91.60
2018-01-15T20:49:02.615Z,91.50
2018-01-15T20:51:30.907Z,91.50
2018-01-15T20:54:00.311Z,90.70
2018-01-15T20:56:28.472Z,91.60
2018-01-15T20:58:56.680Z,90.60
2018-01-15T21:01:29.326Z,91.30
2018-01-15T21:03:57.612Z,91.50
2018-01-15T21:06:27.707Z,90.70
2018-01-15T21:08:55.904Z,91.60
2018-01-15T21:11:24.145Z,92.20
2018-01-15T21:13:53.444Z,90.90
2018-01-15T21:16:21.660Z,90.80
2018-01-15T21:18:49.815Z,92.00
2018-01-15T21:21:35.935Z,90.40
2018-01-15T21:24:04.481Z,90.40
2018-01-15T21:26:32.651Z,91.60
2018-01-15T21:29:00.905Z,91.40
2018-01-15T21:31:29.944Z,90.90
2018-01-15T21:33:59.418Z,91.60
2018-01-15T21:36:28.950Z,91.00
2018-01-15T21:38:57.208Z,89.50
2018-01-15T21:41:28.193Z,90.80
2018-01-15T21:43:56.488Z,91.10
2018-01-15T21:46:27.055Z,91.10
2018-01-15T21:48:56.964Z,90.30
2018-01-15T21:51:25.173Z,91.20
2018-01-15T21:53:53.326Z,91.20
2018-01-15T21:56:22.342Z,90.60
2018-01-15T21:58:50.509Z,90.70
2018-01-15T22:01:20.585Z,91.10
2018-01-15T22:03:48.765Z,91.10
2018-01-15T22:06:16.922Z,91.20
2018-01-15T22:08:45.073Z,90.60
2018-01-15T22:11:14.076Z,91.40
2018-01-15T22:13:42.235Z,91.50
2018-01-15T22:16:10.403Z,91.50
2018-01-15T22:18:38.627Z,91.10
2018-01-15T22:21:06.785Z,91.20
2018-01-15T22:23:34.968Z,91.10
2018-01-15T22:26:03.130Z,91.70
2018-01-15T22:28:31.351Z,91.20
2018-01-15T22:30:59.649Z,91.00
2018-01-15T22:33:27.883Z,90.60
2018-01-15T22:35:56.670Z,90.20
2018-01-15T22:38:24.921Z,91.10
2018-01-15T22:40:53.184Z,90.60
2018-01-15T22:43:21.387Z,90.40
2018-01-15T22:45:49.575Z,91.90
2018-01-15T22:48:18.391Z,91.40
2018-01-15T22:50:46.678Z,91.50
2018-01-15T22:53:14.889Z,90.50
2018-01-15T22:55:43.316Z,92.10
2018-01-15T22:58:11.534Z,90.90
2018-01-15T23:00:40.707Z,91.00
2018-01-15T23:03:09.054Z,91.40
2018-01-15T23:05:37.995Z,91.10
2018-01-15T23:08:06.162Z,91.10
2018-01-15T23:10:40.944Z,91.80
2018-01-15T23:13:09.119Z,91.30
2018-01-15T23:15:44.335Z,91.80
2018-01-15T23:18:13.786Z,91.80
2018-01-15T23:20:43.013Z,91.30
2018-01-15T23:23:11.232Z,91.80
2018-01-15T23:25:39.477Z,91.50
2018-01-15T23:28:07.628Z,91.60
2018-01-15T23:30:42.539Z,91.70
2018-01-15T23:33:11.454Z,90.30
2018-01-15T23:35:39.698Z,90.30
2018-01-15T23:38:09.016Z,91.10
2018-01-15T23:40:38.032Z,90.70
2018-01-15T23:43:06.286Z,90.70
2018-01-15T23:45:34.477Z,91.20
2018-01-15T23:48:02.640Z,90.30
2018-01-15T23:50:32.386Z,90.80
2018-01-15T23:53:00.544Z,90.10
2018-01-15T23:55:28.729Z,89.80
2018-01-15T23:57:56.912Z,91.10
